John Stevens — WCX3346 — position and weather

sailwx.info

Track history (hours):
 
Tides and Currents Weather Stations Pressure Air Temp Water Temp Dewpoint Dewpoint Depression Visibility Wind Speed Wind Dir Waves Ship Positions

John Stevens

Owner: PORT IMPERIAL FERRY CORP, WEEHAWKEN, NJ. More information available from US FCC via Universal Licensing System and Coast Guard Vessel Documentation Center.

Last reported at 2018-Jan-18 19:30 UTC. Time now 2018-Jan-18 19:52 UTC.
Position N 40°46' W 074°00'.

Length 30 m; draft 2 m.

MMSI: 366990560.

Date/timePositionNaut miles runAvg speedWind from/ knotsBaromVisibWave heightAir tempDewpointWater temp
2018-Jan-18 19:30N 40°46' W 074°00'1 2.0
2018-Jan-18 19:01N 40°47' W 074°01'1 1.9
2018-Jan-18 18:30N 40°46' W 074°00'1 1.9
2018-Jan-18 18:00N 40°47' W 074°01'1 2.0
2018-Jan-18 17:30N 40°46' W 074°00'1 1.8
2018-Jan-18 16:58N 40°47' W 074°01'1 2.1
2018-Jan-18 16:30N 40°46' W 074°00'1 2.0
2018-Jan-18 16:00N 40°47' W 074°01'1 1.9
2018-Jan-18 15:30N 40°46' W 074°00'1 2.0
2018-Jan-18 15:00N 40°47' W 074°01'1 1.9
2018-Jan-18 14:30N 40°46' W 074°00'1 1.9
2018-Jan-18 14:00N 40°47' W 074°01'0 0.5
2018-Jan-18 13:24N 40°46' W 074°00'0 0.8
2018-Jan-18 13:00N 40°47' W 074°01'1 1.9
2018-Jan-18 12:30N 40°46' W 074°00'1 1.8
2018-Jan-18 12:00N 40°47' W 074°01'0 0.1
2018-Jan-18 05:12N 40°46' W 074°00'1 2.5
2018-Jan-18 05:00N 40°47' W 074°01'1 1.9
2018-Jan-18 04:30N 40°46' W 074°00'1 1.9
2018-Jan-18 03:59N 40°47' W 074°01'1 2.0
2018-Jan-18 03:29N 40°46' W 074°00'1 2.0
2018-Jan-18 03:00N 40°47' W 074°01'1 1.9
2018-Jan-18 02:30N 40°46' W 074°00'1 1.9
2018-Jan-18 02:00N 40°47' W 074°01'1 1.9
2018-Jan-18 01:30N 40°46' W 074°00'1 1.9
2018-Jan-18 01:00N 40°47' W 074°01'0 0.0
2018-Jan-18 00:00N 40°47' W 074°01'0 0.1
2018-Jan-17 23:57N 40°47' W 074°01'  
2018-Jan-12 15:00N 40°45' W 074°01'5 9.7
2018-Jan-12 14:30N 40°50' W 073°58'4 8.4
2018-Jan-12 13:59N 40°46' W 074°00'2 4.5
2018-Jan-12 13:30N 40°48' W 073°59'2 3.9
2018-Jan-12 12:58N 40°49' W 073°58'4 8.1
2018-Jan-12 12:31N 40°46' W 074°01'0 0.0
2018-Jan-11 22:29N 40°46' W 074°01'0 0.0
2018-Jan-11 22:00N 40°46' W 074°01'0 0.0
2018-Jan-11 21:30N 40°46' W 074°01'0 0.0
2018-Jan-11 21:00N 40°46' W 074°01'0 0.0
2018-Jan-11 20:30N 40°46' W 074°01'0 0.0
2018-Jan-11 20:00N 40°46' W 074°01'0 0.0
2018-Jan-11 19:30N 40°46' W 074°01'0 0.0
2018-Jan-11 15:50N 40°46' W 074°01'1 1.9
2018-Jan-11 15:27N 40°46' W 074°00'0 0.2
2018-Jan-11 14:57N 40°46' W 074°00'1 1.6
2018-Jan-11 14:30N 40°46' W 074°01'1 1.3
2018-Jan-11 14:00N 40°46' W 074°00'0 0.3
2018-Jan-11 13:30N 40°46' W 074°01'0 1.0
2018-Jan-11 13:00N 40°45' W 074°01'0 0.8
2018-Jan-11 12:30N 40°45' W 074°01'0 0.1
2018-Jan-11 12:00N 40°45' W 074°01'0 0.6
2018-Jan-11 11:30N 40°46' W 074°00'0 0.4
2018-Jan-11 11:00N 40°46' W 074°01'1 0.0
2018-Jan-10 15:36N 40°46' W 074°01'0 2.5
2018-Jan-10 15:30N 40°46' W 074°01'1 1.3
2018-Jan-10 15:00N 40°45' W 074°01'0 0.7
2018-Jan-10 14:30N 40°46' W 074°01'1 1.5
2018-Jan-10 13:57N 40°46' W 074°00'2 1.3
2018-Jan-10 12:48N 40°47' W 073°59'  
Track history (hours):
 
Tides and Currents Weather Stations Pressure Air Temp Water Temp Dewpoint Dewpoint Depression Visibility Wind Speed Wind Dir Waves Ship Positions

John Stevens

Owner: PORT IMPERIAL FERRY CORP, WEEHAWKEN, NJ. More information available from US FCC via Universal Licensing System and Coast Guard Vessel Documentation Center.

Last reported at 2018-Jan-18 19:30 UTC. Time now 2018-Jan-18 19:52 UTC.
Position N 40°46' W 074°00'.

Length 30 m; draft 2 m.

MMSI: 366990560.

Date/timePositionNaut miles runAvg speedWind from/ knotsBaromVisibWave heightAir tempDewpointWater temp
2018-Jan-18 19:30N 40°46' W 074°00'1 2.0
2018-Jan-18 19:01N 40°47' W 074°01'1 1.9
2018-Jan-18 18:30N 40°46' W 074°00'1 1.9
2018-Jan-18 18:00N 40°47' W 074°01'1 2.0
2018-Jan-18 17:30N 40°46' W 074°00'1 1.8
2018-Jan-18 16:58N 40°47' W 074°01'1 2.1
2018-Jan-18 16:30N 40°46' W 074°00'1 2.0
2018-Jan-18 16:00N 40°47' W 074°01'1 1.9
2018-Jan-18 15:30N 40°46' W 074°00'1 2.0
2018-Jan-18 15:00N 40°47' W 074°01'1 1.9
2018-Jan-18 14:30N 40°46' W 074°00'1 1.9
2018-Jan-18 14:00N 40°47' W 074°01'0 0.5
2018-Jan-18 13:24N 40°46' W 074°00'0 0.8
2018-Jan-18 13:00N 40°47' W 074°01'1 1.9
2018-Jan-18 12:30N 40°46' W 074°00'1 1.8
2018-Jan-18 12:00N 40°47' W 074°01'0 0.1
2018-Jan-18 05:12N 40°46' W 074°00'1 2.5
2018-Jan-18 05:00N 40°47' W 074°01'1 1.9
2018-Jan-18 04:30N 40°46' W 074°00'1 1.9
2018-Jan-18 03:59N 40°47' W 074°01'1 2.0
2018-Jan-18 03:29N 40°46' W 074°00'1 2.0
2018-Jan-18 03:00N 40°47' W 074°01'1 1.9
2018-Jan-18 02:30N 40°46' W 074°00'1 1.9
2018-Jan-18 02:00N 40°47' W 074°01'1 1.9
2018-Jan-18 01:30N 40°46' W 074°00'1 1.9
2018-Jan-18 01:00N 40°47' W 074°01'0 0.0
2018-Jan-18 00:00N 40°47' W 074°01'0 0.1
2018-Jan-17 23:57N 40°47' W 074°01'  
2018-Jan-12 15:00N 40°45' W 074°01'5 9.7
2018-Jan-12 14:30N 40°50' W 073°58'4 8.4
2018-Jan-12 13:59N 40°46' W 074°00'2 4.5
2018-Jan-12 13:30N 40°48' W 073°59'2 3.9
2018-Jan-12 12:58N 40°49' W 073°58'4 8.1
2018-Jan-12 12:31N 40°46' W 074°01'0 0.0
2018-Jan-11 22:29N 40°46' W 074°01'0 0.0
2018-Jan-11 22:00N 40°46' W 074°01'0 0.0
2018-Jan-11 21:30N 40°46' W 074°01'0 0.0
2018-Jan-11 21:00N 40°46' W 074°01'0 0.0
2018-Jan-11 20:30N 40°46' W 074°01'0 0.0
2018-Jan-11 20:00N 40°46' W 074°01'0 0.0
2018-Jan-11 19:30N 40°46' W 074°01'0 0.0
2018-Jan-11 15:50N 40°46' W 074°01'1 1.9
2018-Jan-11 15:27N 40°46' W 074°00'0 0.2
2018-Jan-11 14:57N 40°46' W 074°00'1 1.6
2018-Jan-11 14:30N 40°46' W 074°01'1 1.3
2018-Jan-11 14:00N 40°46' W 074°00'0 0.3
2018-Jan-11 13:30N 40°46' W 074°01'0 1.0
2018-Jan-11 13:00N 40°45' W 074°01'0 0.8
2018-Jan-11 12:30N 40°45' W 074°01'0 0.1
2018-Jan-11 12:00N 40°45' W 074°01'0 0.6
2018-Jan-11 11:30N 40°46' W 074°00'0 0.4
2018-Jan-11 11:00N 40°46' W 074°01'1 0.0
2018-Jan-10 15:36N 40°46' W 074°01'0 2.5
2018-Jan-10 15:30N 40°46' W 074°01'1 1.3
2018-Jan-10 15:00N 40°45' W 074°01'0 0.7
2018-Jan-10 14:30N 40°46' W 074°01'1 1.5
2018-Jan-10 13:57N 40°46' W 074°00'2 1.3
2018-Jan-10 12:48N 40°47' W 073°59'  

Dump ship's entire track history